sensor_id;sensor_type;location;lat;lon;timestamp;P1;durP1;ratioP1;P2;durP2;ratioP2
59786;SDS011;45672;51.612;5.536;2022-09-12T00:02:20;29.13;;;21.70;;
59786;SDS011;45672;51.612;5.536;2022-09-12T00:04:46;26.17;;;20.70;;
59786;SDS011;45672;51.612;5.536;2022-09-12T00:07:11;26.60;;;21.42;;
59786;SDS011;45672;51.612;5.536;2022-09-12T00:09:36;27.83;;;20.25;;
59786;SDS011;45672;51.612;5.536;2022-09-12T00:12:02;25.10;;;20.95;;
59786;SDS011;45672;51.612;5.536;2022-09-12T00:14:27;23.85;;;20.33;;
59786;SDS011;45672;51.612;5.536;2022-09-12T00:16:56;26.02;;;20.15;;
59786;SDS011;45672;51.612;5.536;2022-09-12T00:19:22;26.48;;;21.27;;
59786;SDS011;45672;51.612;5.536;2022-09-12T00:21:47;27.90;;;21.10;;
59786;SDS011;45672;51.612;5.536;2022-09-12T00:24:12;25.33;;;20.92;;
59786;SDS011;45672;51.612;5.536;2022-09-12T00:26:37;26.50;;;21.42;;
59786;SDS011;45672;51.612;5.536;2022-09-12T00:29:04;28.77;;;22.50;;
59786;SDS011;45672;51.612;5.536;2022-09-12T00:31:29;27.48;;;22.42;;
59786;SDS011;45672;51.612;5.536;2022-09-12T00:33:55;31.60;;;22.27;;
59786;SDS011;45672;51.612;5.536;2022-09-12T00:36:24;27.15;;;21.52;;
59786;SDS011;45672;51.612;5.536;2022-09-12T00:38:51;25.83;;;21.25;;
59786;SDS011;45672;51.612;5.536;2022-09-12T00:41:20;25.85;;;21.85;;
59786;SDS011;45672;51.612;5.536;2022-09-12T00:43:56;28.75;;;22.50;;
59786;SDS011;45672;51.612;5.536;2022-09-12T00:46:32;28.30;;;22.83;;
59786;SDS011;45672;51.612;5.536;2022-09-12T00:49:11;30.27;;;22.00;;
59786;SDS011;45672;51.612;5.536;2022-09-12T00:51:44;32.17;;;22.50;;
59786;SDS011;45672;51.612;5.536;2022-09-12T00:54:14;26.60;;;21.77;;
59786;SDS011;45672;51.612;5.536;2022-09-12T00:56:45;28.60;;;22.17;;
59786;SDS011;45672;51.612;5.536;2022-09-12T00:59:16;32.25;;;22.77;;
59786;SDS011;45672;51.612;5.536;2022-09-12T01:01:44;30.75;;;22.48;;
59786;SDS011;45672;51.612;5.536;2022-09-12T01:04:14;30.98;;;22.30;;
59786;SDS011;45672;51.612;5.536;2022-09-12T01:06:41;25.88;;;21.40;;
59786;SDS011;45672;51.612;5.536;2022-09-12T01:09:08;28.13;;;21.83;;
59786;SDS011;45672;51.612;5.536;2022-09-12T01:11:37;34.08;;;23.27;;
59786;SDS011;45672;51.612;5.536;2022-09-12T01:14:04;28.73;;;21.67;;
59786;SDS011;45672;51.612;5.536;2022-09-12T01:16:34;29.23;;;22.20;;
59786;SDS011;45672;51.612;5.536;2022-09-12T01:24:36;31.25;;;22.38;;
59786;SDS011;45672;51.612;5.536;2022-09-12T01:27:17;28.48;;;21.92;;
59786;SDS011;45672;51.612;5.536;2022-09-12T01:38:36;27.40;;;22.23;;
59786;SDS011;45672;51.612;5.536;2022-09-12T01:46:18;27.90;;;21.90;;
59786;SDS011;45672;51.612;5.536;2022-09-12T01:49:09;25.42;;;21.58;;
59786;SDS011;45672;51.612;5.536;2022-09-12T01:51:54;28.27;;;22.38;;
59786;SDS011;45672;51.612;5.536;2022-09-12T01:54:46;27.65;;;22.05;;
59786;SDS011;45672;51.612;5.536;2022-09-12T01:57:19;28.77;;;21.88;;
59786;SDS011;45672;51.612;5.536;2022-09-12T01:59:50;26.05;;;21.50;;
59786;SDS011;45672;51.612;5.536;2022-09-12T02:05:00;27.77;;;21.35;;
59786;SDS011;45672;51.612;5.536;2022-09-12T02:07:31;27.35;;;21.98;;
59786;SDS011;45672;51.612;5.536;2022-09-12T02:10:09;28.05;;;21.95;;
59786;SDS011;45672;51.612;5.536;2022-09-12T02:12:38;27.30;;;21.40;;
59786;SDS011;45672;51.612;5.536;2022-09-12T02:15:14;29.67;;;21.65;;
59786;SDS011;45672;51.612;5.536;2022-09-12T02:17:43;26.17;;;21.40;;
59786;SDS011;45672;51.612;5.536;2022-09-12T02:20:18;25.58;;;21.50;;
59786;SDS011;45672;51.612;5.536;2022-09-12T02:22:46;29.52;;;22.08;;
59786;SDS011;45672;51.612;5.536;2022-09-12T02:25:14;28.52;;;22.33;;
59786;SDS011;45672;51.612;5.536;2022-09-12T02:27:44;29.23;;;21.85;;
59786;SDS011;45672;51.612;5.536;2022-09-12T02:30:14;27.25;;;21.40;;
59786;SDS011;45672;51.612;5.536;2022-09-12T02:32:55;27.15;;;21.88;;
59786;SDS011;45672;51.612;5.536;2022-09-12T02:35:45;25.98;;;22.00;;
59786;SDS011;45672;51.612;5.536;2022-09-12T02:41:00;31.35;;;23.42;;
59786;SDS011;45672;51.612;5.536;2022-09-12T02:43:25;31.67;;;22.38;;
59786;SDS011;45672;51.612;5.536;2022-09-12T02:45:51;33.50;;;22.95;;
59786;SDS011;45672;51.612;5.536;2022-09-12T02:48:18;32.65;;;22.30;;
59786;SDS011;45672;51.612;5.536;2022-09-12T02:50:48;30.67;;;23.23;;
59786;SDS011;45672;51.612;5.536;2022-09-12T02:53:13;29.95;;;22.48;;
59786;SDS011;45672;51.612;5.536;2022-09-12T02:55:39;31.23;;;22.90;;
59786;SDS011;45672;51.612;5.536;2022-09-12T02:58:07;31.30;;;22.83;;
59786;SDS011;45672;51.612;5.536;2022-09-12T03:00:48;29.48;;;22.63;;
59786;SDS011;45672;51.612;5.536;2022-09-12T03:03:31;34.13;;;22.73;;
59786;SDS011;45672;51.612;5.536;2022-09-12T03:06:13;30.17;;;21.63;;
59786;SDS011;45672;51.612;5.536;2022-09-12T03:08:53;27.42;;;20.98;;
59786;SDS011;45672;51.612;5.536;2022-09-12T03:14:25;27.10;;;21.77;;
59786;SDS011;45672;51.612;5.536;2022-09-12T03:17:02;32.65;;;21.70;;
59786;SDS011;45672;51.612;5.536;2022-09-12T03:22:14;34.10;;;22.25;;
59786;SDS011;45672;51.612;5.536;2022-09-12T03:30:22;29.75;;;22.52;;
59786;SDS011;45672;51.612;5.536;2022-09-12T03:32:48;29.08;;;21.13;;
59786;SDS011;45672;51.612;5.536;2022-09-12T03:35:16;27.13;;;22.20;;
59786;SDS011;45672;51.612;5.536;2022-09-12T03:37:44;29.77;;;22.63;;
59786;SDS011;45672;51.612;5.536;2022-09-12T03:40:10;28.35;;;21.60;;
59786;SDS011;45672;51.612;5.536;2022-09-12T03:42:36;30.42;;;21.85;;
59786;SDS011;45672;51.612;5.536;2022-09-12T03:45:02;31.95;;;22.80;;
59786;SDS011;45672;51.612;5.536;2022-09-12T03:47:28;28.80;;;22.58;;
59786;SDS011;45672;51.612;5.536;2022-09-12T03:49:53;32.38;;;23.33;;
59786;SDS011;45672;51.612;5.536;2022-09-12T03:52:19;30.08;;;22.65;;
59786;SDS011;45672;51.612;5.536;2022-09-12T03:54:44;33.83;;;22.75;;
59786;SDS011;45672;51.612;5.536;2022-09-12T03:57:09;28.40;;;22.58;;
59786;SDS011;45672;51.612;5.536;2022-09-12T03:59:35;31.42;;;22.08;;
59786;SDS011;45672;51.612;5.536;2022-09-12T04:02:00;32.83;;;21.88;;
59786;SDS011;45672;51.612;5.536;2022-09-12T04:04:25;36.00;;;22.52;;
59786;SDS011;45672;51.612;5.536;2022-09-12T04:06:51;35.63;;;23.05;;
59786;SDS011;45672;51.612;5.536;2022-09-12T04:09:16;28.27;;;22.05;;
59786;SDS011;45672;51.612;5.536;2022-09-12T04:11:41;36.05;;;26.08;;
59786;SDS011;45672;51.612;5.536;2022-09-12T04:14:06;36.95;;;23.08;;
59786;SDS011;45672;51.612;5.536;2022-09-12T04:16:32;32.58;;;22.45;;
59786;SDS011;45672;51.612;5.536;2022-09-12T04:18:57;34.42;;;22.60;;
59786;SDS011;45672;51.612;5.536;2022-09-12T04:21:22;33.28;;;22.95;;
59786;SDS011;45672;51.612;5.536;2022-09-12T04:23:48;32.17;;;23.05;;
59786;SDS011;45672;51.612;5.536;2022-09-12T04:26:14;34.05;;;23.50;;
59786;SDS011;45672;51.612;5.536;2022-09-12T04:28:41;32.15;;;23.40;;
59786;SDS011;45672;51.612;5.536;2022-09-12T04:31:08;36.47;;;24.50;;
59786;SDS011;45672;51.612;5.536;2022-09-12T04:33:36;34.78;;;24.42;;
59786;SDS011;45672;51.612;5.536;2022-09-12T04:36:05;36.97;;;23.23;;
59786;SDS011;45672;51.612;5.536;2022-09-12T04:38:32;34.92;;;24.95;;
59786;SDS011;45672;51.612;5.536;2022-09-12T04:40:58;42.92;;;23.98;;
59786;SDS011;45672;51.612;5.536;2022-09-12T04:43:24;37.75;;;25.10;;
59786;SDS011;45672;51.612;5.536;2022-09-12T04:45:49;36.83;;;24.58;;
59786;SDS011;45672;51.612;5.536;2022-09-12T04:48:14;37.28;;;24.88;;
59786;SDS011;45672;51.612;5.536;2022-09-12T04:50:40;39.90;;;25.00;;
59786;SDS011;45672;51.612;5.536;2022-09-12T04:53:05;40.33;;;24.95;;
59786;SDS011;45672;51.612;5.536;2022-09-12T04:55:32;37.25;;;25.20;;
59786;SDS011;45672;51.612;5.536;2022-09-12T04:57:59;35.70;;;24.77;;
59786;SDS011;45672;51.612;5.536;2022-09-12T05:00:25;37.53;;;25.48;;
59786;SDS011;45672;51.612;5.536;2022-09-12T05:02:50;36.45;;;24.73;;
59786;SDS011;45672;51.612;5.536;2022-09-12T05:05:16;45.60;;;25.40;;
59786;SDS011;45672;51.612;5.536;2022-09-12T05:07:41;40.20;;;25.08;;
59786;SDS011;45672;51.612;5.536;2022-09-12T05:10:06;40.03;;;26.10;;
59786;SDS011;45672;51.612;5.536;2022-09-12T05:12:33;37.05;;;25.20;;
59786;SDS011;45672;51.612;5.536;2022-09-12T05:14:58;34.53;;;24.95;;
59786;SDS011;45672;51.612;5.536;2022-09-12T05:17:23;40.50;;;25.10;;
59786;SDS011;45672;51.612;5.536;2022-09-12T05:19:48;36.20;;;25.33;;
59786;SDS011;45672;51.612;5.536;2022-09-12T05:22:14;38.30;;;24.95;;
59786;SDS011;45672;51.612;5.536;2022-09-12T05:24:40;35.17;;;24.55;;
59786;SDS011;45672;51.612;5.536;2022-09-12T05:27:07;36.25;;;24.15;;
59786;SDS011;45672;51.612;5.536;2022-09-12T05:29:33;37.55;;;24.52;;
59786;SDS011;45672;51.612;5.536;2022-09-12T05:31:58;37.92;;;24.60;;
59786;SDS011;45672;51.612;5.536;2022-09-12T05:34:24;37.33;;;24.05;;
59786;SDS011;45672;51.612;5.536;2022-09-12T05:36:49;32.58;;;23.80;;
59786;SDS011;45672;51.612;5.536;2022-09-12T05:39:14;35.97;;;23.88;;
59786;SDS011;45672;51.612;5.536;2022-09-12T05:41:40;35.33;;;23.88;;
59786;SDS011;45672;51.612;5.536;2022-09-12T05:44:09;36.35;;;24.55;;
59786;SDS011;45672;51.612;5.536;2022-09-12T05:46:37;34.88;;;23.77;;
59786;SDS011;45672;51.612;5.536;2022-09-12T05:49:04;38.38;;;23.98;;
59786;SDS011;45672;51.612;5.536;2022-09-12T05:51:32;34.20;;;23.25;;
59786;SDS011;45672;51.612;5.536;2022-09-12T05:53:59;32.55;;;23.33;;
59786;SDS011;45672;51.612;5.536;2022-09-12T05:56:27;33.05;;;23.40;;
59786;SDS011;45672;51.612;5.536;2022-09-12T05:58:59;36.20;;;24.38;;
59786;SDS011;45672;51.612;5.536;2022-09-12T06:01:26;36.85;;;24.23;;
59786;SDS011;45672;51.612;5.536;2022-09-12T06:03:53;35.42;;;23.92;;
59786;SDS011;45672;51.612;5.536;2022-09-12T06:06:22;32.78;;;24.52;;
59786;SDS011;45672;51.612;5.536;2022-09-12T06:08:49;36.33;;;23.90;;
59786;SDS011;45672;51.612;5.536;2022-09-12T06:11:17;34.67;;;23.90;;
59786;SDS011;45672;51.612;5.536;2022-09-12T06:13:50;35.00;;;24.27;;
59786;SDS011;45672;51.612;5.536;2022-09-12T06:16:17;33.63;;;24.52;;
59786;SDS011;45672;51.612;5.536;2022-09-12T06:19:18;33.75;;;24.48;;
59786;SDS011;45672;51.612;5.536;2022-09-12T06:21:38;35.22;;;23.83;;
59786;SDS011;45672;51.612;5.536;2022-09-12T06:24:03;37.67;;;23.27;;
59786;SDS011;45672;51.612;5.536;2022-09-12T06:26:30;32.72;;;24.08;;
59786;SDS011;45672;51.612;5.536;2022-09-12T06:28:56;37.72;;;24.33;;
59786;SDS011;45672;51.612;5.536;2022-09-12T06:31:30;35.33;;;24.45;;
59786;SDS011;45672;51.612;5.536;2022-09-12T06:34:01;36.35;;;23.95;;
59786;SDS011;45672;51.612;5.536;2022-09-12T06:36:29;38.88;;;25.50;;
59786;SDS011;45672;51.612;5.536;2022-09-12T06:38:57;35.55;;;24.90;;
59786;SDS011;45672;51.612;5.536;2022-09-12T06:41:28;35.83;;;25.70;;
59786;SDS011;45672;51.612;5.536;2022-09-12T06:43:55;38.35;;;26.23;;
59786;SDS011;45672;51.612;5.536;2022-09-12T06:46:21;42.10;;;26.08;;
59786;SDS011;45672;51.612;5.536;2022-09-12T06:48:47;42.35;;;25.60;;
59786;SDS011;45672;51.612;5.536;2022-09-12T06:51:13;37.25;;;25.75;;
59786;SDS011;45672;51.612;5.536;2022-09-12T06:53:41;39.22;;;26.10;;
59786;SDS011;45672;51.612;5.536;2022-09-12T06:56:10;36.80;;;25.83;;
59786;SDS011;45672;51.612;5.536;2022-09-12T06:58:36;41.38;;;25.30;;
59786;SDS011;45672;51.612;5.536;2022-09-12T07:01:03;38.40;;;25.83;;
59786;SDS011;45672;51.612;5.536;2022-09-12T07:03:31;33.90;;;24.23;;
59786;SDS011;45672;51.612;5.536;2022-09-12T07:06:01;33.40;;;23.08;;
59786;SDS011;45672;51.612;5.536;2022-09-12T07:08:30;27.73;;;20.98;;
59786;SDS011;45672;51.612;5.536;2022-09-12T07:10:57;26.13;;;19.60;;
59786;SDS011;45672;51.612;5.536;2022-09-12T07:13:25;22.60;;;19.30;;
59786;SDS011;45672;51.612;5.536;2022-09-12T07:15:53;23.63;;;19.08;;
59786;SDS011;45672;51.612;5.536;2022-09-12T07:18:19;28.33;;;17.98;;
59786;SDS011;45672;51.612;5.536;2022-09-12T07:20:44;22.83;;;18.65;;
59786;SDS011;45672;51.612;5.536;2022-09-12T07:23:10;23.85;;;18.13;;
59786;SDS011;45672;51.612;5.536;2022-09-12T07:25:35;24.67;;;18.08;;
59786;SDS011;45672;51.612;5.536;2022-09-12T07:28:01;23.30;;;18.67;;
59786;SDS011;45672;51.612;5.536;2022-09-12T07:30:26;23.13;;;17.58;;
59786;SDS011;45672;51.612;5.536;2022-09-12T07:32:52;24.35;;;16.42;;
59786;SDS011;45672;51.612;5.536;2022-09-12T07:35:18;20.45;;;16.92;;
59786;SDS011;45672;51.612;5.536;2022-09-12T07:37:44;21.48;;;16.05;;
59786;SDS011;45672;51.612;5.536;2022-09-12T07:40:09;22.25;;;15.75;;
59786;SDS011;45672;51.612;5.536;2022-09-12T07:42:34;17.85;;;15.60;;
59786;SDS011;45672;51.612;5.536;2022-09-12T07:45:00;17.58;;;15.13;;
59786;SDS011;45672;51.612;5.536;2022-09-12T07:47:25;17.58;;;14.73;;
59786;SDS011;45672;51.612;5.536;2022-09-12T07:50:00;663.65;;;68.28;;
59786;SDS011;45672;51.612;5.536;2022-09-12T07:52:25;26.58;;;14.18;;
59786;SDS011;45672;51.612;5.536;2022-09-12T07:54:50;35.60;;;14.18;;
59786;SDS011;45672;51.612;5.536;2022-09-12T07:57:20;13.88;;;12.48;;
59786;SDS011;45672;51.612;5.536;2022-09-12T07:59:45;14.95;;;13.35;;
59786;SDS011;45672;51.612;5.536;2022-09-12T08:02:11;16.52;;;13.43;;
59786;SDS011;45672;51.612;5.536;2022-09-12T08:04:39;22.05;;;13.23;;
59786;SDS011;45672;51.612;5.536;2022-09-12T08:07:06;24.42;;;14.93;;
59786;SDS011;45672;51.612;5.536;2022-09-12T08:09:32;20.45;;;13.05;;
59786;SDS011;45672;51.612;5.536;2022-09-12T08:11:58;17.88;;;13.13;;
59786;SDS011;45672;51.612;5.536;2022-09-12T08:14:23;16.40;;;12.85;;
59786;SDS011;45672;51.612;5.536;2022-09-12T08:16:48;19.30;;;13.90;;
59786;SDS011;45672;51.612;5.536;2022-09-12T08:19:15;13.90;;;12.38;;
59786;SDS011;45672;51.612;5.536;2022-09-12T08:21:40;17.10;;;12.20;;
59786;SDS011;45672;51.612;5.536;2022-09-12T08:24:06;15.10;;;12.70;;
59786;SDS011;45672;51.612;5.536;2022-09-12T08:26:31;14.90;;;12.98;;
59786;SDS011;45672;51.612;5.536;2022-09-12T08:28:57;17.88;;;12.35;;
59786;SDS011;45672;51.612;5.536;2022-09-12T08:31:24;14.32;;;11.95;;
59786;SDS011;45672;51.612;5.536;2022-09-12T08:33:51;13.10;;;11.80;;
59786;SDS011;45672;51.612;5.536;2022-09-12T08:36:20;12.55;;;11.38;;
59786;SDS011;45672;51.612;5.536;2022-09-12T08:38:48;12.95;;;11.43;;
59786;SDS011;45672;51.612;5.536;2022-09-12T08:44:14;19.83;;;11.73;;
59786;SDS011;45672;51.612;5.536;2022-09-12T08:51:52;11.73;;;10.57;;
59786;SDS011;45672;51.612;5.536;2022-09-12T08:54:23;13.77;;;11.25;;
59786;SDS011;45672;51.612;5.536;2022-09-12T08:56:53;11.55;;;10.45;;
59786;SDS011;45672;51.612;5.536;2022-09-12T08:59:26;12.15;;;10.90;;
59786;SDS011;45672;51.612;5.536;2022-09-12T09:01:58;11.63;;;10.43;;
59786;SDS011;45672;51.612;5.536;2022-09-12T09:04:31;10.82;;;9.48;;
59786;SDS011;45672;51.612;5.536;2022-09-12T09:09:56;12.25;;;9.57;;
59786;SDS011;45672;51.612;5.536;2022-09-12T09:12:50;10.88;;;9.38;;
59786;SDS011;45672;51.612;5.536;2022-09-12T09:18:18;11.68;;;9.85;;
59786;SDS011;45672;51.612;5.536;2022-09-12T09:20:48;10.57;;;8.63;;
59786;SDS011;45672;51.612;5.536;2022-09-12T09:23:28;10.43;;;9.18;;
59786;SDS011;45672;51.612;5.536;2022-09-12T09:28:35;9.52;;;8.38;;
59786;SDS011;45672;51.612;5.536;2022-09-12T09:31:17;11.45;;;8.10;;
59786;SDS011;45672;51.612;5.536;2022-09-12T09:33:48;9.70;;;7.95;;
59786;SDS011;45672;51.612;5.536;2022-09-12T09:39:11;10.30;;;8.27;;
59786;SDS011;45672;51.612;5.536;2022-09-12T09:41:50;8.70;;;7.90;;
59786;SDS011;45672;51.612;5.536;2022-09-12T09:44:32;10.00;;;7.50;;
59786;SDS011;45672;51.612;5.536;2022-09-12T09:47:10;8.93;;;7.20;;
59786;SDS011;45672;51.612;5.536;2022-09-12T09:49:36;7.47;;;6.78;;
59786;SDS011;45672;51.612;5.536;2022-09-12T09:52:02;9.23;;;6.80;;
59786;SDS011;45672;51.612;5.536;2022-09-12T10:05:49;6.68;;;5.97;;
59786;SDS011;45672;51.612;5.536;2022-09-12T10:08:19;6.85;;;6.15;;
59786;SDS011;45672;51.612;5.536;2022-09-12T10:11:00;7.87;;;6.90;;
59786;SDS011;45672;51.612;5.536;2022-09-12T10:16:16;6.50;;;5.90;;
59786;SDS011;45672;51.612;5.536;2022-09-12T10:18:43;13.00;;;6.27;;
59786;SDS011;45672;51.612;5.536;2022-09-12T10:21:24;7.82;;;6.82;;
59786;SDS011;45672;51.612;5.536;2022-09-12T10:24:36;6.63;;;6.03;;
59786;SDS011;45672;51.612;5.536;2022-09-12T10:26:53;6.88;;;6.18;;
59786;SDS011;45672;51.612;5.536;2022-09-12T10:29:22;14.13;;;6.30;;
59786;SDS011;45672;51.612;5.536;2022-09-12T10:34:53;5.20;;;4.80;;
59786;SDS011;45672;51.612;5.536;2022-09-12T10:39:56;63.58;;;11.77;;
59786;SDS011;45672;51.612;5.536;2022-09-12T10:47:48;11.43;;;5.38;;
59786;SDS011;45672;51.612;5.536;2022-09-12T10:50:19;6.15;;;5.55;;
59786;SDS011;45672;51.612;5.536;2022-09-12T10:52:52;5.10;;;4.68;;
59786;SDS011;45672;51.612;5.536;2022-09-12T10:55:20;7.82;;;3.58;;
59786;SDS011;45672;51.612;5.536;2022-09-12T10:57:53;7.82;;;3.88;;
59786;SDS011;45672;51.612;5.536;2022-09-12T11:00:29;4.70;;;4.20;;
59786;SDS011;45672;51.612;5.536;2022-09-12T11:03:04;4.00;;;3.70;;
59786;SDS011;45672;51.612;5.536;2022-09-12T11:05:50;6.00;;;3.90;;
59786;SDS011;45672;51.612;5.536;2022-09-12T11:08:37;4.97;;;4.45;;
59786;SDS011;45672;51.612;5.536;2022-09-12T11:11:24;5.82;;;4.32;;
59786;SDS011;45672;51.612;5.536;2022-09-12T11:16:54;6.47;;;3.72;;
59786;SDS011;45672;51.612;5.536;2022-09-12T11:19:46;3.85;;;3.50;;
59786;SDS011;45672;51.612;5.536;2022-09-12T11:25:18;4.70;;;3.83;;
59786;SDS011;45672;51.612;5.536;2022-09-12T11:27:56;3.20;;;3.00;;
59786;SDS011;45672;51.612;5.536;2022-09-12T11:30:30;2.80;;;2.47;;
59786;SDS011;45672;51.612;5.536;2022-09-12T11:35:46;3.20;;;2.80;;
59786;SDS011;45672;51.612;5.536;2022-09-12T11:41:05;6.40;;;2.72;;
59786;SDS011;45672;51.612;5.536;2022-09-12T11:46:15;4.97;;;3.25;;
59786;SDS011;45672;51.612;5.536;2022-09-12T11:54:18;5.32;;;3.40;;
59786;SDS011;45672;51.612;5.536;2022-09-12T11:59:48;3.08;;;2.88;;
59786;SDS011;45672;51.612;5.536;2022-09-12T12:02:24;6.43;;;3.38;;
59786;SDS011;45672;51.612;5.536;2022-09-12T12:07:19;4.50;;;3.70;;
59786;SDS011;45672;51.612;5.536;2022-09-12T12:09:49;3.50;;;3.20;;
59786;SDS011;45672;51.612;5.536;2022-09-12T12:12:18;4.40;;;3.13;;
59786;SDS011;45672;51.612;5.536;2022-09-12T12:14:48;5.40;;;3.42;;
59786;SDS011;45672;51.612;5.536;2022-09-12T12:17:16;4.82;;;3.10;;
59786;SDS011;45672;51.612;5.536;2022-09-12T12:19:44;7.97;;;2.90;;
59786;SDS011;45672;51.612;5.536;2022-09-12T12:22:13;4.97;;;3.60;;
59786;SDS011;45672;51.612;5.536;2022-09-12T12:33:01;3.95;;;3.30;;
59786;SDS011;45672;51.612;5.536;2022-09-12T12:38:02;2.80;;;2.60;;
59786;SDS011;45672;51.612;5.536;2022-09-12T12:40:29;2.90;;;2.70;;
59786;SDS011;45672;51.612;5.536;2022-09-12T12:43:02;2.67;;;2.47;;
59786;SDS011;45672;51.612;5.536;2022-09-12T12:48:07;3.00;;;2.80;;
59786;SDS011;45672;51.612;5.536;2022-09-12T12:50:35;3.33;;;2.83;;
59786;SDS011;45672;51.612;5.536;2022-09-12T12:53:04;5.43;;;2.45;;
59786;SDS011;45672;51.612;5.536;2022-09-12T12:58:55;7.05;;;2.88;;
59786;SDS011;45672;51.612;5.536;2022-09-12T13:03:39;2.85;;;2.63;;
59786;SDS011;45672;51.612;5.536;2022-09-12T13:06:08;3.60;;;2.90;;
59786;SDS011;45672;51.612;5.536;2022-09-12T13:09:01;3.47;;;2.80;;
59786;SDS011;45672;51.612;5.536;2022-09-12T13:11:36;4.57;;;3.05;;
59786;SDS011;45672;51.612;5.536;2022-09-12T13:14:03;6.75;;;2.97;;
59786;SDS011;45672;51.612;5.536;2022-09-12T13:16:53;7.00;;;2.70;;
59786;SDS011;45672;51.612;5.536;2022-09-12T13:19:25;3.35;;;3.05;;
59786;SDS011;45672;51.612;5.536;2022-09-12T13:22:03;4.45;;;3.25;;
59786;SDS011;45672;51.612;5.536;2022-09-12T13:24:30;3.10;;;2.90;;
59786;SDS011;45672;51.612;5.536;2022-09-12T13:26:55;3.05;;;2.85;;
59786;SDS011;45672;51.612;5.536;2022-09-12T13:29:25;3.08;;;2.78;;
59786;SDS011;45672;51.612;5.536;2022-09-12T13:34:23;4.47;;;2.30;;
59786;SDS011;45672;51.612;5.536;2022-09-12T13:43:08;3.88;;;2.33;;
59786;SDS011;45672;51.612;5.536;2022-09-12T13:45:42;4.03;;;2.20;;
59786;SDS011;45672;51.612;5.536;2022-09-12T13:48:18;2.53;;;2.30;;
59786;SDS011;45672;51.612;5.536;2022-09-12T13:53:26;2.50;;;2.30;;
59786;SDS011;45672;51.612;5.536;2022-09-12T13:55:58;2.78;;;2.50;;
59786;SDS011;45672;51.612;5.536;2022-09-12T13:58:25;3.50;;;2.33;;
59786;SDS011;45672;51.612;5.536;2022-09-12T14:01:13;4.90;;;2.47;;
59786;SDS011;45672;51.612;5.536;2022-09-12T14:03:52;3.92;;;2.38;;
59786;SDS011;45672;51.612;5.536;2022-09-12T14:09:11;2.88;;;2.15;;
59786;SDS011;45672;51.612;5.536;2022-09-12T14:11:45;4.10;;;2.33;;
59786;SDS011;45672;51.612;5.536;2022-09-12T14:14:17;5.70;;;2.47;;
59786;SDS011;45672;51.612;5.536;2022-09-12T14:16:47;3.80;;;2.35;;
59786;SDS011;45672;51.612;5.536;2022-09-12T14:19:14;3.90;;;2.60;;
59786;SDS011;45672;51.612;5.536;2022-09-12T14:21:43;4.25;;;2.30;;
59786;SDS011;45672;51.612;5.536;2022-09-12T14:24:09;2.50;;;2.30;;
59786;SDS011;45672;51.612;5.536;2022-09-12T14:26:38;3.50;;;2.60;;
59786;SDS011;45672;51.612;5.536;2022-09-12T14:29:06;2.60;;;2.40;;
59786;SDS011;45672;51.612;5.536;2022-09-12T14:31:36;2.35;;;2.00;;
59786;SDS011;45672;51.612;5.536;2022-09-12T14:34:09;4.55;;;2.25;;
59786;SDS011;45672;51.612;5.536;2022-09-12T14:39:16;3.50;;;2.50;;
59786;SDS011;45672;51.612;5.536;2022-09-12T14:41:45;2.30;;;2.10;;
59786;SDS011;45672;51.612;5.536;2022-09-12T14:44:15;5.80;;;2.10;;
59786;SDS011;45672;51.612;5.536;2022-09-12T14:46:44;3.22;;;2.08;;
59786;SDS011;45672;51.612;5.536;2022-09-12T14:49:16;3.05;;;1.95;;
59786;SDS011;45672;51.612;5.536;2022-09-12T14:51:55;4.45;;;2.20;;
59786;SDS011;45672;51.612;5.536;2022-09-12T14:56:54;3.22;;;2.13;;
59786;SDS011;45672;51.612;5.536;2022-09-12T15:04:46;2.50;;;2.30;;
59786;SDS011;45672;51.612;5.536;2022-09-12T15:12:40;2.13;;;1.92;;
59786;SDS011;45672;51.612;5.536;2022-09-12T15:15:17;5.95;;;1.90;;
59786;SDS011;45672;51.612;5.536;2022-09-12T15:17:43;3.97;;;1.83;;
59786;SDS011;45672;51.612;5.536;2022-09-12T15:20:09;2.88;;;1.80;;
59786;SDS011;45672;51.612;5.536;2022-09-12T15:22:35;3.40;;;2.17;;
59786;SDS011;45672;51.612;5.536;2022-09-12T15:25:02;2.05;;;1.92;;
59786;SDS011;45672;51.612;5.536;2022-09-12T15:27:28;2.97;;;1.80;;
59786;SDS011;45672;51.612;5.536;2022-09-12T15:29:54;3.13;;;1.95;;
59786;SDS011;45672;51.612;5.536;2022-09-12T15:32:24;2.38;;;1.95;;
59786;SDS011;45672;51.612;5.536;2022-09-12T15:34:51;6.43;;;1.80;;
59786;SDS011;45672;51.612;5.536;2022-09-12T15:37:17;4.13;;;1.83;;
59786;SDS011;45672;51.612;5.536;2022-09-12T15:39:44;4.22;;;1.80;;
59786;SDS011;45672;51.612;5.536;2022-09-12T15:42:11;7.90;;;2.10;;
59786;SDS011;45672;51.612;5.536;2022-09-12T15:44:37;3.00;;;2.00;;
59786;SDS011;45672;51.612;5.536;2022-09-12T15:47:03;3.30;;;2.10;;
59786;SDS011;45672;51.612;5.536;2022-09-12T15:49:29;6.82;;;2.15;;
59786;SDS011;45672;51.612;5.536;2022-09-12T15:51:54;3.85;;;2.38;;
59786;SDS011;45672;51.612;5.536;2022-09-12T15:54:19;3.25;;;2.20;;
59786;SDS011;45672;51.612;5.536;2022-09-12T15:56:45;2.22;;;2.08;;
59786;SDS011;45672;51.612;5.536;2022-09-12T15:59:10;2.75;;;2.10;;
59786;SDS011;45672;51.612;5.536;2022-09-12T16:01:36;2.38;;;1.90;;
59786;SDS011;45672;51.612;5.536;2022-09-12T16:04:01;2.63;;;2.03;;
59786;SDS011;45672;51.612;5.536;2022-09-12T16:06:27;3.03;;;2.03;;
59786;SDS011;45672;51.612;5.536;2022-09-12T16:08:54;5.75;;;1.90;;
59786;SDS011;45672;51.612;5.536;2022-09-12T16:11:21;2.00;;;1.90;;
59786;SDS011;45672;51.612;5.536;2022-09-12T16:13:48;3.55;;;1.75;;
59786;SDS011;45672;51.612;5.536;2022-09-12T16:16:16;6.25;;;1.80;;
59786;SDS011;45672;51.612;5.536;2022-09-12T16:18:41;4.53;;;1.90;;
59786;SDS011;45672;51.612;5.536;2022-09-12T16:21:06;1.95;;;1.85;;
59786;SDS011;45672;51.612;5.536;2022-09-12T16:23:32;5.82;;;2.13;;
59786;SDS011;45672;51.612;5.536;2022-09-12T16:25:58;3.03;;;1.80;;
59786;SDS011;45672;51.612;5.536;2022-09-12T16:28:26;2.33;;;1.65;;
59786;SDS011;45672;51.612;5.536;2022-09-12T16:30:56;1.60;;;1.50;;
59786;SDS011;45672;51.612;5.536;2022-09-12T16:33:22;3.63;;;1.90;;
59786;SDS011;45672;51.612;5.536;2022-09-12T16:35:48;2.95;;;2.03;;
59786;SDS011;45672;51.612;5.536;2022-09-12T16:38:15;3.25;;;1.75;;
59786;SDS011;45672;51.612;5.536;2022-09-12T16:40:41;1.90;;;1.77;;
59786;SDS011;45672;51.612;5.536;2022-09-12T16:43:07;1.83;;;1.70;;
59786;SDS011;45672;51.612;5.536;2022-09-12T16:45:32;4.03;;;1.60;;
59786;SDS011;45672;51.612;5.536;2022-09-12T16:47:57;5.20;;;2.00;;
59786;SDS011;45672;51.612;5.536;2022-09-12T16:50:23;1.70;;;1.60;;
59786;SDS011;45672;51.612;5.536;2022-09-12T16:52:48;2.90;;;1.77;;
59786;SDS011;45672;51.612;5.536;2022-09-12T16:55:15;2.45;;;2.00;;
59786;SDS011;45672;51.612;5.536;2022-09-12T16:57:40;3.58;;;1.90;;
59786;SDS011;45672;51.612;5.536;2022-09-12T17:00:05;3.97;;;1.73;;
59786;SDS011;45672;51.612;5.536;2022-09-12T17:02:31;2.13;;;1.80;;
59786;SDS011;45672;51.612;5.536;2022-09-12T17:04:56;2.55;;;1.80;;
59786;SDS011;45672;51.612;5.536;2022-09-12T17:07:22;2.50;;;2.20;;
59786;SDS011;45672;51.612;5.536;2022-09-12T17:09:47;2.13;;;1.92;;
59786;SDS011;45672;51.612;5.536;2022-09-12T17:12:13;6.35;;;1.92;;
59786;SDS011;45672;51.612;5.536;2022-09-12T17:14:38;2.97;;;1.88;;
59786;SDS011;45672;51.612;5.536;2022-09-12T17:17:03;2.75;;;1.80;;
59786;SDS011;45672;51.612;5.536;2022-09-12T17:19:29;2.70;;;1.92;;
59786;SDS011;45672;51.612;5.536;2022-09-12T17:21:55;4.88;;;2.40;;